Terminal Aerodrome Forecast
Issued by NWS Charleston, WV

Home | Current Version | Previous Version | Text Only | Print | Product List | Glossary On
Versions: 1 2 3 4 5 6 7 8 9 10 11 12 13 14 15 16 17 18 19 20 21 22 23 24 25 26
000
FTUS41 KRLX 041130
TAFHTS
TAF
KHTS 041130Z 0412/0512 00000KT 6SM BR SCT009 BKN015 OVC050
     FM041500 VRB05KT P6SM BKN040
     FM042100 24007KT 6SM -SHRA VCTS BKN040CB
     FM042300 25006KT 3SM SHRA BR VCTS OVC025CB=

USA.gov is the U.S. government's official web portal to all federal, state and local government web resources and services.